createdAt,value
2022-10-10T00:00:19.037Z,3.08
2022-10-10T00:05:20.861Z,4.00
2022-10-10T00:10:22.722Z,2.85
2022-10-10T00:15:24.645Z,1.83
2022-10-10T00:20:26.620Z,4.10
2022-10-10T00:25:28.822Z,2.92
2022-10-10T00:30:31.380Z,3.08
2022-10-10T00:35:33.078Z,2.55
2022-10-10T00:40:35.189Z,3.58
2022-10-10T00:45:40.606Z,2.17
2022-10-10T00:51:11.446Z,2.00
2022-10-10T00:56:16.287Z,3.05
2022-10-10T01:01:19.316Z,2.10
2022-10-10T01:06:21.023Z,2.97
2022-10-10T01:11:38.118Z,2.40
2022-10-10T01:16:49.005Z,4.30
2022-10-10T01:22:28.265Z,2.08
2022-10-10T01:27:38.531Z,2.35
2022-10-10T01:33:08.849Z,2.00
2022-10-10T01:38:31.622Z,3.47
2022-10-10T01:43:35.295Z,2.97
2022-10-10T01:48:39.693Z,4.20
2022-10-10T01:54:14.800Z,2.60
2022-10-10T01:59:22.520Z,6.00
2022-10-10T02:04:49.175Z,3.80
2022-10-10T02:09:52.569Z,3.25
2022-10-10T02:14:58.736Z,2.45
2022-10-10T02:20:00.657Z,1.70
2022-10-10T02:25:02.712Z,2.28
2022-10-10T02:30:06.085Z,2.00
2022-10-10T02:35:14.086Z,2.25
2022-10-10T02:40:20.766Z,3.97
2022-10-10T02:45:23.604Z,4.00
2022-10-10T02:50:26.431Z,2.20
2022-10-10T02:55:28.125Z,1.95
2022-10-10T03:00:30.350Z,1.90
2022-10-10T03:05:32.355Z,3.03
2022-10-10T03:10:34.902Z,2.70
2022-10-10T03:15:37.746Z,2.50
2022-10-10T03:20:39.403Z,1.85
2022-10-10T03:25:45.300Z,3.63
2022-10-10T03:30:48.166Z,2.70
2022-10-10T03:35:50.262Z,2.30
2022-10-10T03:40:52.421Z,1.85
2022-10-10T03:45:54.218Z,3.13
2022-10-10T03:50:55.865Z,4.38
2022-10-10T03:55:57.520Z,2.65
2022-10-10T04:01:02.258Z,5.55
2022-10-10T04:06:04.099Z,2.85
2022-10-10T04:11:05.836Z,3.03
2022-10-10T04:16:07.676Z,2.78
2022-10-10T04:21:09.952Z,6.45
2022-10-10T04:26:11.622Z,6.13
2022-10-10T04:31:13.503Z,4.95
2022-10-10T04:36:15.159Z,4.82
2022-10-10T04:41:16.878Z,5.80
2022-10-10T04:46:18.502Z,6.78
2022-10-10T04:51:20.196Z,9.32
2022-10-10T04:56:21.812Z,12.75
2022-10-10T05:01:23.872Z,19.90
2022-10-10T05:06:25.614Z,22.25
2022-10-10T05:11:28.342Z,23.55
2022-10-10T05:16:30.632Z,5.70
2022-10-10T05:21:32.299Z,3.53
2022-10-10T05:26:42.241Z,3.22
2022-10-10T05:31:45.357Z,4.85
2022-10-10T05:36:47.289Z,3.15
2022-10-10T05:41:51.123Z,2.60
2022-10-10T05:46:53.224Z,5.10
2022-10-10T05:51:54.932Z,6.75
2022-10-10T05:56:56.787Z,13.90
2022-10-10T06:01:58.443Z,2.70
2022-10-10T06:07:00.096Z,3.83
2022-10-10T06:12:01.833Z,6.47
2022-10-10T06:17:03.473Z,3.90
2022-10-10T06:22:05.416Z,2.72
2022-10-10T06:27:07.063Z,2.63
2022-10-10T06:32:08.904Z,4.95
2022-10-10T06:37:12.343Z,3.13
2022-10-10T06:42:13.976Z,4.03
2022-10-10T06:47:16.280Z,3.30
2022-10-10T06:52:17.982Z,3.22
2022-10-10T06:57:19.666Z,2.80
2022-10-10T07:02:21.421Z,3.58
2022-10-10T07:07:25.233Z,5.30
2022-10-10T07:12:31.609Z,2.65
2022-10-10T07:17:35.953Z,3.00
2022-10-10T07:22:38.231Z,3.30
2022-10-10T07:27:40.079Z,6.15
2022-10-10T07:32:41.960Z,3.85
2022-10-10T07:37:43.624Z,3.40
2022-10-10T07:42:45.397Z,4.00
2022-10-10T07:47:47.189Z,6.57
2022-10-10T07:52:49.054Z,3.00
2022-10-10T07:57:53.385Z,3.63
2022-10-10T08:02:55.554Z,3.92
2022-10-10T08:07:57.373Z,3.38
2022-10-10T08:12:59.184Z,4.07
2022-10-10T08:18:00.838Z,4.15
2022-10-10T08:23:02.526Z,5.40
2022-10-10T08:28:04.952Z,3.88
2022-10-10T08:33:06.791Z,4.97
2022-10-10T08:38:09.009Z,7.50
2022-10-10T08:43:21.773Z,7.55
2022-10-10T08:48:28.627Z,6.63
2022-10-10T08:53:41.598Z,8.57
2022-10-10T08:58:47.526Z,7.95
2022-10-10T09:03:57.438Z,8.95
2022-10-10T09:09:37.123Z,8.32
2022-10-10T09:14:49.027Z,10.98
2022-10-10T09:20:04.140Z,10.07
2022-10-10T09:25:15.783Z,11.82
2022-10-10T09:30:20.195Z,8.80
2022-10-10T09:35:25.417Z,11.93
2022-10-10T09:40:34.497Z,7.93
2022-10-10T09:45:43.535Z,8.13
2022-10-10T09:50:47.616Z,10.10
2022-10-10T09:55:50.871Z,8.68
2022-10-10T10:00:53.918Z,8.98
2022-10-10T10:06:02.419Z,9.50
2022-10-10T10:11:05.112Z,7.95
2022-10-10T10:16:12.880Z,7.15
2022-10-10T10:21:26.466Z,7.67
2022-10-10T10:26:47.778Z,9.75
2022-10-10T10:32:13.940Z,7.60
2022-10-10T10:37:47.204Z,7.30
2022-10-10T10:43:02.724Z,5.50
2022-10-10T10:48:26.643Z,5.20
2022-10-10T10:53:54.668Z,4.97
2022-10-10T10:59:30.377Z,4.97
2022-10-10T11:05:25.051Z,5.27
2022-10-10T11:10:19.675Z,8.00
2022-10-10T11:15:30.808Z,8.77
2022-10-10T11:20:51.828Z,8.25
2022-10-10T11:26:20.474Z,7.50
2022-10-10T11:31:36.961Z,9.00
2022-10-10T11:36:42.061Z,10.32
2022-10-10T11:41:59.176Z,8.13
2022-10-10T11:47:22.063Z,9.05
2022-10-10T11:52:39.540Z,7.50
2022-10-10T11:57:54.138Z,7.70
2022-10-10T12:02:57.367Z,9.13
2022-10-10T12:08:07.318Z,5.72
2022-10-10T12:13:27.354Z,6.72
2022-10-10T12:18:44.844Z,5.38
2022-10-10T12:23:49.345Z,7.60
2022-10-10T12:29:01.960Z,6.72
2022-10-10T12:34:13.947Z,4.80
2022-10-10T12:39:22.319Z,4.72
2022-10-10T12:44:45.925Z,3.88
2022-10-10T12:50:05.514Z,3.80
2022-10-10T12:55:21.273Z,3.88
2022-10-10T13:00:24.519Z,7.55
2022-10-10T13:05:31.864Z,6.68
2022-10-10T13:10:33.584Z,4.45
2022-10-10T13:15:36.319Z,4.80
2022-10-10T13:20:40.503Z,5.10
2022-10-10T13:25:45.778Z,5.05
2022-10-10T13:30:51.347Z,6.85
2022-10-10T13:36:03.675Z,5.57
2022-10-10T13:41:06.228Z,5.50
2022-10-10T13:46:22.320Z,6.20
2022-10-10T13:51:45.516Z,6.75
2022-10-10T13:56:47.217Z,5.60
2022-10-10T14:01:58.712Z,7.40
2022-10-10T14:07:06.155Z,7.75
2022-10-10T14:12:16.991Z,8.02
2022-10-10T14:17:18.988Z,8.25
2022-10-10T14:22:22.003Z,11.90
2022-10-10T14:27:26.356Z,11.45
2022-10-10T14:32:28.093Z,9.35
2022-10-10T14:37:30.958Z,10.23
2022-10-10T14:42:35.599Z,9.95
2022-10-10T14:47:37.238Z,13.32
2022-10-10T14:52:38.932Z,9.98
2022-10-10T14:57:42.830Z,9.02
2022-10-10T15:02:45.904Z,10.68
2022-10-10T15:07:50.532Z,8.77
2022-10-10T15:12:52.763Z,9.45
2022-10-10T15:17:57.462Z,11.23
2022-10-10T15:23:01.657Z,9.02
2022-10-10T15:28:04.812Z,10.13
2022-10-10T15:33:06.477Z,8.55
2022-10-10T15:38:08.064Z,19.85
2022-10-10T15:43:09.692Z,13.85
2022-10-10T15:48:11.379Z,10.38
2022-10-10T15:53:13.018Z,10.85
2022-10-10T15:58:16.094Z,9.30
2022-10-10T16:03:17.758Z,11.35
2022-10-10T16:08:19.453Z,18.88
2022-10-10T16:13:21.119Z,11.20
2022-10-10T16:18:23.151Z,11.95
2022-10-10T16:23:25.977Z,13.07
2022-10-10T16:28:27.721Z,10.23
2022-10-10T16:33:32.878Z,10.50
2022-10-10T16:38:34.680Z,11.77
2022-10-10T16:43:37.679Z,8.63
2022-10-10T16:48:41.403Z,10.18
2022-10-10T16:53:43.962Z,10.52
2022-10-10T16:58:45.946Z,8.38
2022-10-10T17:03:49.419Z,7.47
2022-10-10T17:08:56.090Z,6.88
2022-10-10T17:13:58.462Z,6.30
2022-10-10T17:19:01.323Z,6.82
2022-10-10T17:24:03.297Z,7.97
2022-10-10T17:29:04.849Z,8.32
2022-10-10T17:34:09.160Z,8.02
2022-10-10T17:39:10.981Z,7.60
2022-10-10T17:44:13.498Z,9.85
2022-10-10T17:49:15.200Z,8.38
2022-10-10T17:54:16.872Z,7.80
2022-10-10T17:59:18.718Z,11.40
2022-10-10T18:04:20.396Z,57.10
2022-10-10T18:09:22.037Z,45.63
2022-10-10T18:14:24.141Z,37.13
2022-10-10T18:19:27.029Z,35.22
2022-10-10T18:24:29.171Z,41.63
2022-10-10T18:29:31.021Z,119.57
2022-10-10T18:34:32.807Z,52.38
2022-10-10T18:39:36.028Z,28.10
2022-10-10T18:44:38.593Z,19.17
2022-10-10T18:49:40.404Z,17.48
2022-10-10T18:54:42.219Z,13.75
2022-10-10T18:59:43.880Z,9.15
2022-10-10T19:04:48.044Z,8.70
2022-10-10T19:09:49.821Z,8.65
2022-10-10T19:14:51.892Z,8.65
2022-10-10T19:19:53.540Z,7.63
2022-10-10T19:24:58.818Z,7.95
2022-10-10T19:30:00.518Z,7.10
2022-10-10T19:35:02.409Z,7.68
2022-10-10T19:40:04.551Z,7.43
2022-10-10T19:45:06.878Z,7.38
2022-10-10T19:50:08.981Z,6.82
2022-10-10T19:55:10.835Z,6.90
2022-10-10T20:00:15.679Z,6.82
2022-10-10T20:05:17.655Z,6.80
2022-10-10T20:10:21.876Z,7.35
2022-10-10T20:15:23.933Z,7.03
2022-10-10T20:20:26.675Z,7.65
2022-10-10T20:25:28.371Z,7.00
2022-10-10T20:30:30.011Z,20.63
2022-10-10T20:35:34.332Z,9.35
2022-10-10T20:40:38.814Z,7.90
2022-10-10T20:45:42.729Z,10.35
2022-10-10T20:50:44.341Z,18.70
2022-10-10T20:55:46.074Z,21.25
2022-10-10T21:00:47.804Z,14.02
2022-10-10T21:05:49.581Z,9.98
2022-10-10T21:10:51.204Z,9.57
2022-10-10T21:15:52.982Z,12.43
2022-10-10T21:20:59.956Z,24.65
2022-10-10T21:26:07.184Z,9.05
2022-10-10T21:31:14.762Z,15.37
2022-10-10T21:36:18.195Z,10.07
2022-10-10T21:41:21.232Z,13.18
2022-10-10T21:46:25.468Z,10.30
2022-10-10T21:51:27.182Z,19.05
2022-10-10T21:56:28.778Z,14.73
2022-10-10T22:01:33.195Z,20.63
2022-10-10T22:06:35.130Z,20.80
2022-10-10T22:11:36.936Z,14.13
2022-10-10T22:16:38.606Z,11.90
2022-10-10T22:21:40.280Z,11.02
2022-10-10T22:26:42.385Z,19.15
2022-10-10T22:31:44.068Z,26.25
2022-10-10T22:36:46.719Z,14.13
2022-10-10T22:41:48.313Z,11.82
2022-10-10T22:46:51.712Z,14.27
2022-10-10T22:51:53.348Z,10.27
2022-10-10T22:56:55.278Z,13.23
2022-10-10T23:01:56.855Z,12.27
2022-10-10T23:06:58.983Z,8.73
2022-10-10T23:12:00.604Z,8.75
2022-10-10T23:17:02.199Z,9.55
2022-10-10T23:22:05.235Z,11.23
2022-10-10T23:27:07.408Z,8.98
2022-10-10T23:32:09.088Z,8.43
2022-10-10T23:37:10.707Z,8.60
2022-10-10T23:42:12.335Z,9.45
2022-10-10T23:47:13.935Z,7.97
2022-10-10T23:52:15.911Z,7.63
2022-10-10T23:57:17.584Z,10.27
